Terminal Aerodrome Forecast
Issued by NWS Brownsville, TX

Home | Current Version | Previous Version | Text Only | Print | Product List | Glossary On
Versions: 1 2 3 4 5 6 7 8 9 10 11 12 13 14
000
FTUS44 KBRO 251700
TAFMFE
TAF
KMFE 251735Z 2518/2618 15010G15KT P6SM SKC
     FM252000 14014G22KT P6SM SCT050 SCT250
     FM252300 13018G24KT P6SM FEW070
     FM260200 14009KT P6SM SKC
     FM261500 15015KT P6SM SKC=

USA.gov is the U.S. government's official web portal to all federal, state and local government web resources and services.